Jhang Weather



Jhang's Current Weather

Temprature 31.83o clear sky

clear sky

Rain: 0 %

Min Temprature31.67o
Max Temprature32o
Humidity75
Wind Speed4.6 m/h
Sun Rise05:30:00
Sun Set18:58:16
Current Time: 13-Aug-2020 19:12:59
Lat/Lon: 33.67, 72.7




Jhang's Geo Location



Jhang's Weather Forecast

Time Overall Temp Min Temp Max Temp Humidity Wind Speed Rain
13-Aug-2020 (Thu)
20:00:00 clear sky 32.090 32.090 32.360 66 4.23 m/h 0 %
23:00:00 clear sky 30.500 30.130 30.500 70 7.02 m/h 0 %
14-Aug-2020 (Fri)
02:00:00 light rain 28.720 28.510 28.720 78 6 m/h 127 %
05:00:00 moderate rain 27.400 27.360 27.400 80 4.29 m/h 573 %
08:00:00 light rain 29.280 29.280 29.280 72 4.87 m/h 46 %
11:00:00 light rain 33.110 33.110 33.110 57 5.48 m/h 25 %
14:00:00 light rain 35.370 35.370 35.370 49 3.54 m/h 160 %
17:00:00 scattered clouds 35.150 35.150 35.150 50 3.8 m/h 0 %
20:00:00 clear sky 31.310 31.310 31.310 62 3.83 m/h 0 %
23:00:00 light rain 30.200 30.200 30.200 64 4.42 m/h 11 %
15-Aug-2020 (Sat)
02:00:00 moderate rain 27.620 27.620 27.620 78 3.07 m/h 381 %
05:00:00 light rain 27.200 27.200 27.200 81 2.03 m/h 225 %
08:00:00 light rain 29.640 29.640 29.640 69 2.26 m/h 61 %
11:00:00 light rain 33.840 33.840 33.840 55 2.42 m/h 17 %
14:00:00 few clouds 36.640 36.640 36.640 44 2.33 m/h 0 %
17:00:00 scattered clouds 35.590 35.590 35.590 50 4.34 m/h 0 %
20:00:00 clear sky 32.350 32.350 32.350 60 3.33 m/h 0 %
23:00:00 clear sky 31.120 31.120 31.120 62 3.16 m/h 0 %
16-Aug-2020 (Sun)
02:00:00 light rain 29.600 29.600 29.600 67 3.6 m/h 56 %
05:00:00 light rain 28.300 28.300 28.300 75 3.3 m/h 247 %
08:00:00 broken clouds 30.270 30.270 30.270 67 3.17 m/h 0 %
11:00:00 scattered clouds 34.230 34.230 34.230 54 3.25 m/h 0 %
14:00:00 scattered clouds 36.160 36.160 36.160 47 1.43 m/h 0 %
17:00:00 scattered clouds 36.850 36.850 36.850 44 2.48 m/h 0 %
20:00:00 clear sky 32.230 32.230 32.230 61 4.87 m/h 0 %
23:00:00 clear sky 31.260 31.260 31.260 63 4.37 m/h 0 %
17-Aug-2020 (Mon)
02:00:00 light rain 30.180 30.180 30.180 67 3.55 m/h 34 %
05:00:00 light rain 29.110 29.110 29.110 73 3.56 m/h 177 %
08:00:00 moderate rain 30.320 30.320 30.320 70 6.07 m/h 528 %
11:00:00 moderate rain 33.640 33.640 33.640 58 4.03 m/h 875 %
14:00:00 light rain 35.270 35.270 35.270 51 3.34 m/h 221 %
17:00:00 light rain 33.970 33.970 33.970 57 5.6 m/h 25 %
20:00:00 clear sky 30.870 30.870 30.870 65 4.67 m/h 0 %
23:00:00 clear sky 29.900 29.900 29.900 68 3.75 m/h 0 %
18-Aug-2020 (Tue)
02:00:00 light rain 28.910 28.910 28.910 72 3.86 m/h 75 %
05:00:00 moderate rain 27.090 27.090 27.090 83 2.44 m/h 605 %
08:00:00 moderate rain 29.220 29.220 29.220 75 4.37 m/h 314 %
11:00:00 light rain 33.300 33.300 33.300 61 5.39 m/h 232 %
14:00:00 light rain 36.160 36.160 36.160 49 3.89 m/h 98 %
17:00:00 light rain 33.270 33.270 33.270 59 6.08 m/h 34 %

Famous Cities (60)